sensor_id;sensor_type;location;lat;lon;timestamp;pressure;altitude;pressure_sealevel;temperature;humidity
11038;BME280;5572;49.540;11.932;2022-12-29T00:01:21;95666.19;;;3.54;100.00
11038;BME280;5572;49.540;11.932;2022-12-29T00:03:48;95656.84;;;3.47;100.00
11038;BME280;5572;49.540;11.932;2022-12-29T00:06:16;95656.28;;;3.50;100.00
11038;BME280;5572;49.540;11.932;2022-12-29T00:08:42;95637.88;;;3.48;100.00
11038;BME280;5572;49.540;11.932;2022-12-29T00:11:11;95632.25;;;3.60;100.00
11038;BME280;5572;49.540;11.932;2022-12-29T00:13:38;95612.78;;;3.49;100.00
11038;BME280;5572;49.540;11.932;2022-12-29T00:16:22;95599.94;;;3.51;100.00
11038;BME280;5572;49.540;11.932;2022-12-29T00:18:49;95591.66;;;3.58;100.00
11038;BME280;5572;49.540;11.932;2022-12-29T00:21:19;95584.97;;;3.70;100.00
11038;BME280;5572;49.540;11.932;2022-12-29T00:24:04;95569.44;;;3.77;100.00
11038;BME280;5572;49.540;11.932;2022-12-29T00:26:50;95540.88;;;3.68;100.00
11038;BME280;5572;49.540;11.932;2022-12-29T00:29:37;95535.78;;;3.66;100.00
11038;BME280;5572;49.540;11.932;2022-12-29T00:32:21;95520.81;;;3.75;100.00
11038;BME280;5572;49.540;11.932;2022-12-29T00:35:07;95519.16;;;3.94;100.00
11038;BME280;5572;49.540;11.932;2022-12-29T00:37:37;95487.13;;;3.74;100.00
11038;BME280;5572;49.540;11.932;2022-12-29T00:40:22;95477.06;;;3.61;100.00
11038;BME280;5572;49.540;11.932;2022-12-29T00:43:06;95473.25;;;3.82;100.00
11038;BME280;5572;49.540;11.932;2022-12-29T00:45:50;95450.88;;;3.58;100.00
11038;BME280;5572;49.540;11.932;2022-12-29T00:48:17;95460.75;;;3.68;100.00
11038;BME280;5572;49.540;11.932;2022-12-29T00:51:04;95436.78;;;3.48;100.00
11038;BME280;5572;49.540;11.932;2022-12-29T00:53:31;95432.50;;;3.42;100.00
11038;BME280;5572;49.540;11.932;2022-12-29T00:55:58;95430.66;;;3.42;100.00
11038;BME280;5572;49.540;11.932;2022-12-29T00:58:26;95411.47;;;3.21;100.00
11038;BME280;5572;49.540;11.932;2022-12-29T01:01:00;95424.78;;;3.36;100.00
11038;BME280;5572;49.540;11.932;2022-12-29T01:03:27;95412.47;;;3.39;100.00
11038;BME280;5572;49.540;11.932;2022-12-29T01:05:54;95404.47;;;3.39;100.00
11038;BME280;5572;49.540;11.932;2022-12-29T01:08:20;95403.66;;;3.44;100.00
11038;BME280;5572;49.540;11.932;2022-12-29T01:10:57;95395.59;;;3.54;100.00
11038;BME280;5572;49.540;11.932;2022-12-29T01:13:23;95381.13;;;3.60;100.00
11038;BME280;5572;49.540;11.932;2022-12-29T01:15:50;95359.75;;;3.60;100.00
11038;BME280;5572;49.540;11.932;2022-12-29T01:18:16;95357.81;;;3.75;100.00
11038;BME280;5572;49.540;11.932;2022-12-29T01:20:43;95342.66;;;3.66;100.00
11038;BME280;5572;49.540;11.932;2022-12-29T01:23:10;95335.72;;;3.60;100.00
11038;BME280;5572;49.540;11.932;2022-12-29T01:25:36;95324.16;;;3.74;100.00
11038;BME280;5572;49.540;11.932;2022-12-29T01:28:04;95310.75;;;3.84;100.00
11038;BME280;5572;49.540;11.932;2022-12-29T01:30:32;95310.78;;;3.79;100.00
11038;BME280;5572;49.540;11.932;2022-12-29T01:32:58;95292.84;;;3.85;100.00
11038;BME280;5572;49.540;11.932;2022-12-29T01:35:25;95292.38;;;3.73;100.00
11038;BME280;5572;49.540;11.932;2022-12-29T01:37:52;95273.97;;;3.71;100.00
11038;BME280;5572;49.540;11.932;2022-12-29T01:40:19;95260.06;;;3.69;100.00
11038;BME280;5572;49.540;11.932;2022-12-29T01:42:46;95262.53;;;3.61;100.00
11038;BME280;5572;49.540;11.932;2022-12-29T01:45:15;95257.50;;;3.54;100.00
11038;BME280;5572;49.540;11.932;2022-12-29T01:47:44;95248.06;;;3.67;100.00
11038;BME280;5572;49.540;11.932;2022-12-29T01:50:14;95251.53;;;3.67;100.00
11038;BME280;5572;49.540;11.932;2022-12-29T01:52:47;95229.63;;;3.65;100.00
11038;BME280;5572;49.540;11.932;2022-12-29T01:55:17;95216.19;;;3.42;100.00
11038;BME280;5572;49.540;11.932;2022-12-29T01:57:46;95216.63;;;3.59;100.00
11038;BME280;5572;49.540;11.932;2022-12-29T02:00:15;95197.56;;;3.70;100.00
11038;BME280;5572;49.540;11.932;2022-12-29T02:02:45;95201.47;;;3.49;100.00
11038;BME280;5572;49.540;11.932;2022-12-29T02:05:17;95214.25;;;3.86;100.00
11038;BME280;5572;49.540;11.932;2022-12-29T02:07:48;95178.69;;;3.90;100.00
11038;BME280;5572;49.540;11.932;2022-12-29T02:10:18;95173.84;;;3.92;100.00
11038;BME280;5572;49.540;11.932;2022-12-29T02:12:46;95146.91;;;3.89;100.00
11038;BME280;5572;49.540;11.932;2022-12-29T02:15:15;95142.22;;;3.71;100.00
11038;BME280;5572;49.540;11.932;2022-12-29T02:17:59;95152.06;;;3.75;100.00
11038;BME280;5572;49.540;11.932;2022-12-29T02:20:48;95143.50;;;3.78;100.00
11038;BME280;5572;49.540;11.932;2022-12-29T02:23:36;95119.44;;;3.83;100.00
11038;BME280;5572;49.540;11.932;2022-12-29T02:26:18;95130.25;;;3.68;100.00
11038;BME280;5572;49.540;11.932;2022-12-29T02:31:41;95156.06;;;4.06;100.00
11038;BME280;5572;49.540;11.932;2022-12-29T02:34:17;95134.41;;;4.08;100.00
11038;BME280;5572;49.540;11.932;2022-12-29T02:36:52;95121.94;;;3.98;100.00
11038;BME280;5572;49.540;11.932;2022-12-29T02:39:33;95136.22;;;4.12;100.00
11038;BME280;5572;49.540;11.932;2022-12-29T02:42:05;95113.03;;;4.08;100.00
11038;BME280;5572;49.540;11.932;2022-12-29T02:44:45;95103.75;;;4.00;100.00
11038;BME280;5572;49.540;11.932;2022-12-29T02:47:23;95110.13;;;4.04;100.00
11038;BME280;5572;49.540;11.932;2022-12-29T02:49:57;95103.81;;;4.19;100.00
11038;BME280;5572;49.540;11.932;2022-12-29T02:52:28;95098.72;;;4.17;100.00
11038;BME280;5572;49.540;11.932;2022-12-29T02:54:56;95082.69;;;4.17;100.00
11038;BME280;5572;49.540;11.932;2022-12-29T02:57:34;95067.47;;;4.18;100.00
11038;BME280;5572;49.540;11.932;2022-12-29T03:00:04;95050.72;;;4.07;100.00
11038;BME280;5572;49.540;11.932;2022-12-29T03:03:13;95050.09;;;4.15;100.00
11038;BME280;5572;49.540;11.932;2022-12-29T03:05:56;95038.91;;;4.13;100.00
11038;BME280;5572;49.540;11.932;2022-12-29T03:08:31;95031.31;;;4.20;100.00
11038;BME280;5572;49.540;11.932;2022-12-29T03:11:03;95016.66;;;4.18;100.00
11038;BME280;5572;49.540;11.932;2022-12-29T03:13:37;95001.06;;;4.24;100.00
11038;BME280;5572;49.540;11.932;2022-12-29T03:16:25;94974.69;;;4.36;100.00
11038;BME280;5572;49.540;11.932;2022-12-29T03:19:00;94959.16;;;4.38;100.00
11038;BME280;5572;49.540;11.932;2022-12-29T03:21:32;94925.94;;;4.39;100.00
11038;BME280;5572;49.540;11.932;2022-12-29T03:24:21;94897.78;;;4.28;100.00
11038;BME280;5572;49.540;11.932;2022-12-29T03:26:50;94876.59;;;4.32;100.00
11038;BME280;5572;49.540;11.932;2022-12-29T03:29:20;94873.56;;;4.38;100.00
11038;BME280;5572;49.540;11.932;2022-12-29T03:31:48;94839.38;;;4.35;100.00
11038;BME280;5572;49.540;11.932;2022-12-29T03:34:18;94825.53;;;4.47;100.00
11038;BME280;5572;49.540;11.932;2022-12-29T03:36:48;94810.66;;;4.41;100.00
11038;BME280;5572;49.540;11.932;2022-12-29T03:39:18;94803.16;;;4.43;100.00
11038;BME280;5572;49.540;11.932;2022-12-29T03:41:49;94770.81;;;4.39;100.00
11038;BME280;5572;49.540;11.932;2022-12-29T03:44:17;94757.69;;;4.43;100.00
11038;BME280;5572;49.540;11.932;2022-12-29T03:46:44;94738.06;;;4.34;100.00
11038;BME280;5572;49.540;11.932;2022-12-29T03:49:10;94725.88;;;4.55;100.00
11038;BME280;5572;49.540;11.932;2022-12-29T03:51:38;94701.78;;;4.41;100.00
11038;BME280;5572;49.540;11.932;2022-12-29T03:54:05;94682.69;;;4.34;100.00
11038;BME280;5572;49.540;11.932;2022-12-29T03:56:31;94666.75;;;4.43;100.00
11038;BME280;5572;49.540;11.932;2022-12-29T03:58:58;94654.47;;;4.42;100.00
11038;BME280;5572;49.540;11.932;2022-12-29T04:01:24;94649.50;;;4.35;100.00
11038;BME280;5572;49.540;11.932;2022-12-29T04:03:51;94636.84;;;4.41;100.00
11038;BME280;5572;49.540;11.932;2022-12-29T04:06:18;94620.78;;;4.41;100.00
11038;BME280;5572;49.540;11.932;2022-12-29T04:08:45;94623.47;;;4.41;100.00
11038;BME280;5572;49.540;11.932;2022-12-29T04:11:12;94606.72;;;4.35;100.00
11038;BME280;5572;49.540;11.932;2022-12-29T04:13:39;94591.88;;;4.43;100.00
11038;BME280;5572;49.540;11.932;2022-12-29T04:16:06;94599.78;;;4.48;100.00
11038;BME280;5572;49.540;11.932;2022-12-29T04:18:33;94592.94;;;4.55;100.00
11038;BME280;5572;49.540;11.932;2022-12-29T04:20:59;94608.38;;;4.45;100.00
11038;BME280;5572;49.540;11.932;2022-12-29T04:23:25;94602.81;;;4.55;100.00
11038;BME280;5572;49.540;11.932;2022-12-29T04:25:53;94601.47;;;4.57;100.00
11038;BME280;5572;49.540;11.932;2022-12-29T04:28:20;94602.13;;;4.63;100.00
11038;BME280;5572;49.540;11.932;2022-12-29T04:30:47;94593.91;;;4.46;100.00
11038;BME280;5572;49.540;11.932;2022-12-29T04:33:14;94610.94;;;4.63;100.00
11038;BME280;5572;49.540;11.932;2022-12-29T04:35:41;94615.50;;;4.49;100.00
11038;BME280;5572;49.540;11.932;2022-12-29T04:38:08;94620.06;;;4.49;100.00
11038;BME280;5572;49.540;11.932;2022-12-29T04:40:34;94611.38;;;4.43;100.00
11038;BME280;5572;49.540;11.932;2022-12-29T04:43:02;94605.44;;;4.46;100.00
11038;BME280;5572;49.540;11.932;2022-12-29T04:45:29;94613.13;;;4.48;100.00
11038;BME280;5572;49.540;11.932;2022-12-29T04:47:56;94605.94;;;4.48;100.00
11038;BME280;5572;49.540;11.932;2022-12-29T04:50:23;94602.13;;;4.63;100.00
11038;BME280;5572;49.540;11.932;2022-12-29T04:52:49;94604.81;;;4.63;100.00
11038;BME280;5572;49.540;11.932;2022-12-29T04:55:16;94597.19;;;4.56;100.00
11038;BME280;5572;49.540;11.932;2022-12-29T04:57:43;94588.84;;;4.58;100.00
11038;BME280;5572;49.540;11.932;2022-12-29T05:00:12;94598.81;;;4.44;100.00
11038;BME280;5572;49.540;11.932;2022-12-29T05:02:39;94607.03;;;4.34;100.00
11038;BME280;5572;49.540;11.932;2022-12-29T05:05:06;94601.69;;;4.34;100.00
11038;BME280;5572;49.540;11.932;2022-12-29T05:07:33;94612.16;;;4.30;100.00
11038;BME280;5572;49.540;11.932;2022-12-29T05:10:00;94596.03;;;4.22;100.00
11038;BME280;5572;49.540;11.932;2022-12-29T05:12:29;94598.28;;;4.15;100.00
11038;BME280;5572;49.540;11.932;2022-12-29T05:14:56;94584.84;;;4.20;100.00
11038;BME280;5572;49.540;11.932;2022-12-29T05:17:24;94584.16;;;4.15;100.00
11038;BME280;5572;49.540;11.932;2022-12-29T05:19:51;94582.88;;;4.12;100.00
11038;BME280;5572;49.540;11.932;2022-12-29T05:22:17;94580.56;;;4.32;100.00
11038;BME280;5572;49.540;11.932;2022-12-29T05:24:44;94571.84;;;4.27;100.00
11038;BME280;5572;49.540;11.932;2022-12-29T05:27:10;94564.31;;;4.42;100.00
11038;BME280;5572;49.540;11.932;2022-12-29T05:29:37;94566.03;;;4.38;100.00
11038;BME280;5572;49.540;11.932;2022-12-29T05:32:04;94556.25;;;4.56;100.00
11038;BME280;5572;49.540;11.932;2022-12-29T05:34:32;94573.72;;;4.53;100.00
11038;BME280;5572;49.540;11.932;2022-12-29T05:36:58;94569.25;;;4.49;100.00
11038;BME280;5572;49.540;11.932;2022-12-29T05:39:25;94563.97;;;4.71;100.00
11038;BME280;5572;49.540;11.932;2022-12-29T05:41:51;94569.34;;;4.57;100.00
11038;BME280;5572;49.540;11.932;2022-12-29T05:44:18;94570.63;;;4.60;100.00
11038;BME280;5572;49.540;11.932;2022-12-29T05:46:44;94559.28;;;4.76;100.00
11038;BME280;5572;49.540;11.932;2022-12-29T05:49:11;94529.44;;;4.83;100.00
11038;BME280;5572;49.540;11.932;2022-12-29T05:51:39;94516.31;;;4.73;100.00
11038;BME280;5572;49.540;11.932;2022-12-29T05:54:06;94512.03;;;4.72;100.00
11038;BME280;5572;49.540;11.932;2022-12-29T05:56:32;94505.59;;;4.73;100.00
11038;BME280;5572;49.540;11.932;2022-12-29T05:58:59;94503.53;;;4.70;100.00
11038;BME280;5572;49.540;11.932;2022-12-29T06:01:26;94503.84;;;4.68;100.00
11038;BME280;5572;49.540;11.932;2022-12-29T06:03:53;94502.00;;;4.77;100.00
11038;BME280;5572;49.540;11.932;2022-12-29T06:06:19;94474.44;;;4.77;100.00
11038;BME280;5572;49.540;11.932;2022-12-29T06:08:47;94506.50;;;4.68;100.00
11038;BME280;5572;49.540;11.932;2022-12-29T06:11:14;94497.91;;;4.58;100.00
11038;BME280;5572;49.540;11.932;2022-12-29T06:13:40;94483.03;;;4.65;100.00
11038;BME280;5572;49.540;11.932;2022-12-29T06:16:07;94472.00;;;4.67;100.00
11038;BME280;5572;49.540;11.932;2022-12-29T06:18:34;94498.91;;;4.62;100.00
11038;BME280;5572;49.540;11.932;2022-12-29T06:21:04;94492.38;;;4.54;100.00
11038;BME280;5572;49.540;11.932;2022-12-29T06:23:31;94491.38;;;4.28;100.00
11038;BME280;5572;49.540;11.932;2022-12-29T06:25:59;94490.97;;;4.22;100.00
11038;BME280;5572;49.540;11.932;2022-12-29T06:28:25;94475.19;;;4.33;100.00
11038;BME280;5572;49.540;11.932;2022-12-29T06:30:52;94471.69;;;4.11;100.00
11038;BME280;5572;49.540;11.932;2022-12-29T06:33:18;94469.75;;;4.25;100.00
11038;BME280;5572;49.540;11.932;2022-12-29T06:35:46;94477.72;;;4.17;100.00
11038;BME280;5572;49.540;11.932;2022-12-29T06:38:12;94492.25;;;4.11;100.00
11038;BME280;5572;49.540;11.932;2022-12-29T06:40:39;94492.66;;;4.18;100.00
11038;BME280;5572;49.540;11.932;2022-12-29T06:43:07;94491.38;;;4.02;100.00
11038;BME280;5572;49.540;11.932;2022-12-29T06:45:34;94511.09;;;4.06;100.00
11038;BME280;5572;49.540;11.932;2022-12-29T06:48:01;94492.00;;;3.99;100.00
11038;BME280;5572;49.540;11.932;2022-12-29T06:50:27;94493.69;;;3.95;100.00
11038;BME280;5572;49.540;11.932;2022-12-29T06:52:54;94485.63;;;4.08;100.00
11038;BME280;5572;49.540;11.932;2022-12-29T06:55:20;94479.03;;;4.06;100.00
11038;BME280;5572;49.540;11.932;2022-12-29T06:57:47;94481.28;;;4.12;100.00
11038;BME280;5572;49.540;11.932;2022-12-29T07:00:16;94499.59;;;4.19;100.00
11038;BME280;5572;49.540;11.932;2022-12-29T07:02:43;94488.97;;;4.27;100.00
11038;BME280;5572;49.540;11.932;2022-12-29T07:05:11;94479.31;;;4.18;100.00
11038;BME280;5572;49.540;11.932;2022-12-29T07:07:38;94486.91;;;4.11;100.00
11038;BME280;5572;49.540;11.932;2022-12-29T07:10:06;94568.50;;;4.08;100.00
11038;BME280;5572;49.540;11.932;2022-12-29T07:12:32;94527.91;;;4.06;100.00
11038;BME280;5572;49.540;11.932;2022-12-29T07:14:59;94558.50;;;4.14;100.00
11038;BME280;5572;49.540;11.932;2022-12-29T07:17:27;94554.25;;;4.13;100.00
11038;BME280;5572;49.540;11.932;2022-12-29T07:19:53;94541.00;;;4.08;100.00
11038;BME280;5572;49.540;11.932;2022-12-29T07:22:20;94544.06;;;4.15;100.00
11038;BME280;5572;49.540;11.932;2022-12-29T07:24:46;94530.78;;;4.10;100.00
11038;BME280;5572;49.540;11.932;2022-12-29T07:27:13;94533.88;;;4.03;100.00
11038;BME280;5572;49.540;11.932;2022-12-29T07:29:40;94537.50;;;4.07;100.00
11038;BME280;5572;49.540;11.932;2022-12-29T07:32:06;94557.91;;;4.17;100.00
11038;BME280;5572;49.540;11.932;2022-12-29T07:34:34;94547.50;;;4.28;100.00
11038;BME280;5572;49.540;11.932;2022-12-29T07:37:01;94520.88;;;4.23;100.00
11038;BME280;5572;49.540;11.932;2022-12-29T07:39:27;94516.97;;;4.29;100.00
11038;BME280;5572;49.540;11.932;2022-12-29T07:41:54;94537.25;;;4.57;100.00
11038;BME280;5572;49.540;11.932;2022-12-29T07:44:20;94536.75;;;4.55;100.00
11038;BME280;5572;49.540;11.932;2022-12-29T07:46:47;94542.16;;;4.77;100.00
11038;BME280;5572;49.540;11.932;2022-12-29T07:49:13;94521.16;;;4.71;100.00
11038;BME280;5572;49.540;11.932;2022-12-29T07:51:41;94542.19;;;4.64;100.00
11038;BME280;5572;49.540;11.932;2022-12-29T07:54:08;94545.47;;;4.61;100.00
11038;BME280;5572;49.540;11.932;2022-12-29T07:56:35;94535.50;;;4.75;100.00
11038;BME280;5572;49.540;11.932;2022-12-29T07:59:02;94546.69;;;4.77;100.00
11038;BME280;5572;49.540;11.932;2022-12-29T08:01:28;94574.25;;;4.77;100.00
11038;BME280;5572;49.540;11.932;2022-12-29T08:03:55;94555.59;;;4.86;100.00
11038;BME280;5572;49.540;11.932;2022-12-29T08:06:21;94569.72;;;5.00;100.00
11038;BME280;5572;49.540;11.932;2022-12-29T08:08:49;94563.53;;;5.12;100.00
11038;BME280;5572;49.540;11.932;2022-12-29T08:11:16;94558.06;;;5.17;100.00
11038;BME280;5572;49.540;11.932;2022-12-29T08:13:42;94577.56;;;4.96;100.00
11038;BME280;5572;49.540;11.932;2022-12-29T08:16:09;94569.31;;;5.06;100.00
11038;BME280;5572;49.540;11.932;2022-12-29T08:18:36;94578.03;;;5.11;100.00
11038;BME280;5572;49.540;11.932;2022-12-29T08:21:03;94619.50;;;5.01;100.00
11038;BME280;5572;49.540;11.932;2022-12-29T08:23:30;94598.59;;;4.89;100.00
11038;BME280;5572;49.540;11.932;2022-12-29T08:25:59;94590.91;;;5.09;100.00
11038;BME280;5572;49.540;11.932;2022-12-29T08:28:25;94579.06;;;4.89;100.00
11038;BME280;5572;49.540;11.932;2022-12-29T08:30:52;94594.13;;;4.98;100.00
11038;BME280;5572;49.540;11.932;2022-12-29T08:33:19;94570.44;;;4.92;100.00
11038;BME280;5572;49.540;11.932;2022-12-29T08:35:45;94595.22;;;4.97;100.00
11038;BME280;5572;49.540;11.932;2022-12-29T08:38:12;94584.19;;;4.99;100.00
11038;BME280;5572;49.540;11.932;2022-12-29T08:40:39;94589.69;;;4.94;100.00
11038;BME280;5572;49.540;11.932;2022-12-29T08:43:07;94577.44;;;5.01;100.00
11038;BME280;5572;49.540;11.932;2022-12-29T08:45:33;94572.31;;;4.91;100.00
11038;BME280;5572;49.540;11.932;2022-12-29T08:48:00;94570.16;;;4.93;100.00
11038;BME280;5572;49.540;11.932;2022-12-29T08:50:26;94576.34;;;5.02;100.00
11038;BME280;5572;49.540;11.932;2022-12-29T08:52:53;94590.41;;;5.07;100.00
11038;BME280;5572;49.540;11.932;2022-12-29T08:55:20;94588.78;;;4.98;100.00
11038;BME280;5572;49.540;11.932;2022-12-29T08:57:46;94580.13;;;5.01;100.00
11038;BME280;5572;49.540;11.932;2022-12-29T09:00:15;94585.13;;;4.94;100.00
11038;BME280;5572;49.540;11.932;2022-12-29T09:02:41;94590.34;;;4.99;100.00
11038;BME280;5572;49.540;11.932;2022-12-29T09:05:08;94596.84;;;5.07;100.00
11038;BME280;5572;49.540;11.932;2022-12-29T09:07:35;94593.22;;;5.03;100.00
11038;BME280;5572;49.540;11.932;2022-12-29T09:10:03;94579.72;;;5.07;100.00
11038;BME280;5572;49.540;11.932;2022-12-29T09:12:30;94600.22;;;5.12;100.00
11038;BME280;5572;49.540;11.932;2022-12-29T09:14:56;94610.28;;;5.28;100.00
11038;BME280;5572;49.540;11.932;2022-12-29T09:17:24;94610.72;;;5.44;100.00
11038;BME280;5572;49.540;11.932;2022-12-29T09:20:09;94583.59;;;5.67;100.00
11038;BME280;5572;49.540;11.932;2022-12-29T09:22:36;94562.53;;;6.04;100.00
11038;BME280;5572;49.540;11.932;2022-12-29T09:25:03;94638.53;;;5.56;100.00
11038;BME280;5572;49.540;11.932;2022-12-29T09:27:30;94610.88;;;5.47;100.00
11038;BME280;5572;49.540;11.932;2022-12-29T09:29:57;94632.75;;;5.41;100.00
11038;BME280;5572;49.540;11.932;2022-12-29T09:32:25;94613.81;;;5.37;100.00
11038;BME280;5572;49.540;11.932;2022-12-29T09:34:51;94608.03;;;5.66;100.00
11038;BME280;5572;49.540;11.932;2022-12-29T09:37:18;94574.53;;;5.77;100.00
11038;BME280;5572;49.540;11.932;2022-12-29T09:39:44;94580.03;;;6.02;100.00
11038;BME280;5572;49.540;11.932;2022-12-29T09:42:16;94560.47;;;6.01;100.00
11038;BME280;5572;49.540;11.932;2022-12-29T09:44:54;94590.06;;;6.18;100.00
11038;BME280;5572;49.540;11.932;2022-12-29T09:47:24;94581.53;;;6.25;100.00
11038;BME280;5572;49.540;11.932;2022-12-29T09:49:55;94576.53;;;6.40;100.00
11038;BME280;5572;49.540;11.932;2022-12-29T09:52:25;94569.28;;;6.41;100.00
11038;BME280;5572;49.540;11.932;2022-12-29T09:54:56;94585.97;;;6.29;100.00
11038;BME280;5572;49.540;11.932;2022-12-29T09:57:26;94569.22;;;6.24;100.00
11038;BME280;5572;49.540;11.932;2022-12-29T09:59:56;94634.00;;;6.09;100.00
11038;BME280;5572;49.540;11.932;2022-12-29T10:02:33;94608.47;;;6.11;100.00
11038;BME280;5572;49.540;11.932;2022-12-29T10:05:03;94589.41;;;6.13;100.00
11038;BME280;5572;49.540;11.932;2022-12-29T10:07:37;94572.44;;;6.04;100.00
11038;BME280;5572;49.540;11.932;2022-12-29T10:10:15;94570.09;;;6.02;100.00
11038;BME280;5572;49.540;11.932;2022-12-29T10:13:03;94572.66;;;6.16;100.00
11038;BME280;5572;49.540;11.932;2022-12-29T10:15:40;94625.03;;;6.13;100.00
11038;BME280;5572;49.540;11.932;2022-12-29T10:18:20;94609.88;;;6.09;100.00
11038;BME280;5572;49.540;11.932;2022-12-29T10:20:53;94589.78;;;6.28;100.00
11038;BME280;5572;49.540;11.932;2022-12-29T10:23:26;94566.59;;;6.41;100.00
11038;BME280;5572;49.540;11.932;2022-12-29T10:25:54;94551.50;;;6.70;100.00
11038;BME280;5572;49.540;11.932;2022-12-29T10:28:23;94549.91;;;6.69;100.00
11038;BME280;5572;49.540;11.932;2022-12-29T10:30:51;94544.72;;;6.81;100.00
11038;BME280;5572;49.540;11.932;2022-12-29T10:33:22;94618.50;;;6.83;100.00
11038;BME280;5572;49.540;11.932;2022-12-29T10:35:52;94588.16;;;6.83;100.00
11038;BME280;5572;49.540;11.932;2022-12-29T10:38:23;94566.84;;;6.86;100.00
11038;BME280;5572;49.540;11.932;2022-12-29T10:40:56;94625.31;;;7.06;100.00
11038;BME280;5572;49.540;11.932;2022-12-29T10:43:26;94590.88;;;7.25;100.00
11038;BME280;5572;49.540;11.932;2022-12-29T10:45:54;94573.81;;;7.38;100.00
11038;BME280;5572;49.540;11.932;2022-12-29T10:48:25;94554.22;;;7.38;100.00
11038;BME280;5572;49.540;11.932;2022-12-29T10:50:57;94555.16;;;7.50;100.00
11038;BME280;5572;49.540;11.932;2022-12-29T10:53:27;94600.97;;;7.79;100.00
11038;BME280;5572;49.540;11.932;2022-12-29T10:55:58;94596.69;;;7.78;100.00
11038;BME280;5572;49.540;11.932;2022-12-29T10:58:28;94568.06;;;7.73;100.00
11038;BME280;5572;49.540;11.932;2022-12-29T11:00:57;94668.34;;;7.57;100.00
11038;BME280;5572;49.540;11.932;2022-12-29T11:03:43;94603.34;;;7.72;100.00
11038;BME280;5572;49.540;11.932;2022-12-29T11:06:18;94646.06;;;7.48;100.00
11038;BME280;5572;49.540;11.932;2022-12-29T11:08:53;94642.72;;;7.60;100.00
11038;BME280;5572;49.540;11.932;2022-12-29T11:11:24;94619.94;;;7.82;100.00
11038;BME280;5572;49.540;11.932;2022-12-29T11:13:57;94591.66;;;7.76;100.00
11038;BME280;5572;49.540;11.932;2022-12-29T11:16:27;94577.34;;;8.01;100.00
11038;BME280;5572;49.540;11.932;2022-12-29T11:18:57;94546.75;;;8.23;100.00
11038;BME280;5572;49.540;11.932;2022-12-29T11:21:27;94526.34;;;8.13;100.00
11038;BME280;5572;49.540;11.932;2022-12-29T11:23:59;94530.06;;;8.29;100.00
11038;BME280;5572;49.540;11.932;2022-12-29T11:26:26;94632.47;;;8.41;100.00
11038;BME280;5572;49.540;11.932;2022-12-29T11:29:10;94584.59;;;8.55;100.00
11038;BME280;5572;49.540;11.932;2022-12-29T11:31:41;94532.59;;;8.63;100.00
11038;BME280;5572;49.540;11.932;2022-12-29T11:34:16;94618.16;;;8.57;100.00
11038;BME280;5572;49.540;11.932;2022-12-29T11:36:43;94609.59;;;8.64;100.00
11038;BME280;5572;49.540;11.932;2022-12-29T11:39:30;94582.69;;;8.84;100.00
11038;BME280;5572;49.540;11.932;2022-12-29T11:41:59;94529.28;;;9.07;100.00
11038;BME280;5572;49.540;11.932;2022-12-29T11:44:31;94573.38;;;9.23;100.00
11038;BME280;5572;49.540;11.932;2022-12-29T11:47:02;94538.53;;;9.38;100.00
11038;BME280;5572;49.540;11.932;2022-12-29T11:49:30;94528.50;;;9.59;100.00
11038;BME280;5572;49.540;11.932;2022-12-29T11:51:57;94618.56;;;9.66;100.00
11038;BME280;5572;49.540;11.932;2022-12-29T11:54:26;94659.22;;;9.82;100.00
11038;BME280;5572;49.540;11.932;2022-12-29T11:56:54;94657.34;;;10.15;100.00
11038;BME280;5572;49.540;11.932;2022-12-29T11:59:25;94664.94;;;10.33;100.00
11038;BME280;5572;49.540;11.932;2022-12-29T12:02:09;94659.63;;;10.57;100.00
11038;BME280;5572;49.540;11.932;2022-12-29T12:04:40;94633.38;;;10.57;100.00
11038;BME280;5572;49.540;11.932;2022-12-29T12:07:11;94617.16;;;10.57;100.00
11038;BME280;5572;49.540;11.932;2022-12-29T12:09:45;94652.38;;;10.37;100.00
11038;BME280;5572;49.540;11.932;2022-12-29T12:12:22;94619.88;;;10.57;100.00
11038;BME280;5572;49.540;11.932;2022-12-29T12:14:54;94603.59;;;10.78;100.00
11038;BME280;5572;49.540;11.932;2022-12-29T12:17:27;94687.63;;;10.64;100.00
11038;BME280;5572;49.540;11.932;2022-12-29T12:20:06;94664.25;;;11.04;100.00
11038;BME280;5572;49.540;11.932;2022-12-29T12:22:44;94686.34;;;10.94;100.00
11038;BME280;5572;49.540;11.932;2022-12-29T12:25:14;94728.16;;;10.97;100.00
11038;BME280;5572;49.540;11.932;2022-12-29T12:27:48;94736.94;;;11.06;100.00
11038;BME280;5572;49.540;11.932;2022-12-29T12:30:19;94829.69;;;10.86;100.00
11038;BME280;5572;49.540;11.932;2022-12-29T12:32:52;94839.28;;;10.95;100.00
11038;BME280;5572;49.540;11.932;2022-12-29T12:35:28;94897.34;;;10.77;100.00
11038;BME280;5572;49.540;11.932;2022-12-29T12:38:07;94865.84;;;10.81;100.00
11038;BME280;5572;49.540;11.932;2022-12-29T12:40:50;94876.78;;;10.85;100.00
11038;BME280;5572;49.540;11.932;2022-12-29T12:43:34;94864.31;;;10.92;100.00
11038;BME280;5572;49.540;11.932;2022-12-29T12:46:18;94869.44;;;10.85;100.00
11038;BME280;5572;49.540;11.932;2022-12-29T12:48:59;94896.59;;;10.89;100.00
11038;BME280;5572;49.540;11.932;2022-12-29T12:51:39;94868.03;;;11.00;100.00
11038;BME280;5572;49.540;11.932;2022-12-29T12:54:22;94911.25;;;10.88;100.00
11038;BME280;5572;49.540;11.932;2022-12-29T12:57:02;94904.88;;;11.04;100.00
11038;BME280;5572;49.540;11.932;2022-12-29T12:59:44;94918.22;;;11.09;100.00
11038;BME280;5572;49.540;11.932;2022-12-29T13:02:34;94952.53;;;10.97;100.00
11038;BME280;5572;49.540;11.932;2022-12-29T13:05:20;94983.63;;;11.03;100.00
11038;BME280;5572;49.540;11.932;2022-12-29T13:07:59;94980.41;;;11.09;100.00
11038;BME280;5572;49.540;11.932;2022-12-29T13:10:42;95022.06;;;10.88;100.00
11038;BME280;5572;49.540;11.932;2022-12-29T13:13:35;95038.75;;;10.90;100.00
11038;BME280;5572;49.540;11.932;2022-12-29T13:16:12;95036.53;;;10.83;100.00
11038;BME280;5572;49.540;11.932;2022-12-29T13:18:47;95029.47;;;10.99;100.00
11038;BME280;5572;49.540;11.932;2022-12-29T13:21:27;95043.84;;;11.12;100.00